Time;durP1;ratioP1;P1;durP2;ratioP2;P2;SDS_P1;SDS_P2;PMS_P1;PMS_P2;Temp;Humidity;BMP_temperature;BMP_pressure;BME280_temperature;BME280_humidity;BME280_pressure;Samples;Min_cycle;Max_cycle;Signal;HPM_P1;HPM_P2
2021/10/10 00:02:14;;;;;;;13.02;6.68;;;;;;;7.65;nan;101589.06;5019327;28;20550;-83
2021/10/10 00:04:39;;;;;;;11.95;6.13;;;;;;;7.66;nan;101588.09;5039867;28;20098;-84
2021/10/10 00:07:04;;;;;;;9.82;6.30;;;;;;;7.65;nan;101591.72;5028367;28;20064;-84
2021/10/10 00:09:30;;;;;;;12.65;6.22;;;;;;;7.62;nan;101593.69;5038368;28;20040;-84
2021/10/10 00:11:55;;;;;;;11.52;6.70;;;;;;;7.60;nan;101590.31;5020371;28;20049;-84
2021/10/10 00:14:21;;;;;;;11.10;6.50;;;;;;;7.65;nan;101596.97;5021944;28;20041;-84
2021/10/10 00:16:48;;;;;;;10.57;6.15;;;;;;;7.61;nan;101586.75;5038957;28;20038;-84
2021/10/10 00:19:17;;;;;;;11.00;6.50;;;;;;;7.59;nan;101586.03;5024060;28;20055;-85
2021/10/10 00:21:43;;;;;;;8.15;6.03;;;;;;;7.61;nan;101582.31;5023869;28;20060;-85
2021/10/10 00:24:08;;;;;;;10.32;6.03;;;;;;;7.73;nan;101590.31;5023629;28;20034;-84
2021/10/10 00:26:35;;;;;;;9.48;6.00;;;;;;;7.74;nan;101581.47;5028098;28;20036;-84
2021/10/10 00:29:01;;;;;;;12.63;6.82;;;;;;;7.77;nan;101587.38;5019066;28;20064;-84
2021/10/10 00:31:27;;;;;;;10.52;6.57;;;;;;;7.76;nan;101582.22;5018485;28;20097;-85
2021/10/10 00:33:56;;;;;;;9.23;6.65;;;;;;;7.68;nan;101585.38;5034626;28;20044;-85
2021/10/10 00:36:31;;;;;;;10.80;6.10;;;;;;;7.65;nan;101582.94;5024238;28;20053;-84
2021/10/10 00:38:59;;;;;;;9.90;6.30;;;;;;;7.69;nan;101583.59;5025389;28;20042;-84
2021/10/10 00:41:34;;;;;;;10.68;6.53;;;;;;;7.61;nan;101581.50;5029301;28;20084;-84
2021/10/10 00:44:26;;;;;;;10.27;6.88;;;;;;;7.55;nan;101577.47;5000534;28;20049;-84
2021/10/10 00:46:54;;;;;;;9.38;6.25;;;;;;;7.46;nan;101572.88;5027620;28;20053;-84
2021/10/10 00:49:32;;;;;;;10.70;6.57;;;;;;;7.55;nan;101574.00;5031611;28;20536;-84
2021/10/10 00:52:06;;;;;;;12.15;6.70;;;;;;;7.54;nan;101574.97;5025506;28;20128;-84
2021/10/10 00:54:35;;;;;;;12.00;7.28;;;;;;;7.62;nan;101577.91;5033630;28;20041;-84
2021/10/10 00:57:08;;;;;;;12.50;7.10;;;;;;;7.60;nan;101578.03;5027984;28;20029;-84
2021/10/10 00:59:38;;;;;;;15.65;6.97;;;;;;;7.47;nan;101581.59;5029351;28;20056;-83
2021/10/10 01:02:04;;;;;;;10.68;7.07;;;;;;;7.39;nan;101582.97;5024619;28;20034;-84
2021/10/10 01:04:30;;;;;;;11.10;6.65;;;;;;;7.26;nan;101581.28;5027046;28;20562;-83
2021/10/10 01:06:57;;;;;;;12.07;6.90;;;;;;;7.18;nan;101581.81;5008651;28;20029;-83
2021/10/10 01:09:24;;;;;;;10.73;7.03;;;;;;;7.14;nan;101577.69;5041615;28;20040;-83
2021/10/10 01:11:51;;;;;;;13.43;7.60;;;;;;;7.17;nan;101578.31;5024172;28;20052;-83
2021/10/10 01:14:17;;;;;;;13.40;6.82;;;;;;;7.17;nan;101578.31;5041472;28;20089;-82
2021/10/10 01:16:44;;;;;;;12.38;7.47;;;;;;;7.12;nan;101571.69;5024922;28;20045;-83
2021/10/10 01:19:10;;;;;;;10.93;7.25;;;;;;;7.13;nan;101570.75;5022916;28;20125;-83
2021/10/10 01:21:36;;;;;;;13.93;7.38;;;;;;;7.14;nan;101564.53;5023783;28;21198;-83
2021/10/10 01:24:06;;;;;;;9.60;6.53;;;;;;;7.17;nan;101566.94;5041632;28;20037;-82
2021/10/10 01:26:49;;;;;;;13.63;6.85;;;;;;;7.17;nan;101573.06;5044127;28;20095;-83
2021/10/10 01:29:14;;;;;;;13.75;7.25;;;;;;;7.15;nan;101567.06;5025517;28;20065;-82
2021/10/10 01:31:40;;;;;;;9.38;6.20;;;;;;;7.17;nan;101573.06;5041817;28;20034;-83
2021/10/10 01:34:06;;;;;;;11.40;6.55;;;;;;;7.14;nan;101565.38;5048918;28;20040;-83
2021/10/10 01:36:35;;;;;;;9.15;6.35;;;;;;;7.16;nan;101565.28;5023841;28;20078;-83
2021/10/10 01:39:02;;;;;;;11.05;6.25;;;;;;;7.14;nan;101564.53;5043352;28;20045;-83
2021/10/10 01:41:28;;;;;;;10.55;6.70;;;;;;;7.18;nan;101558.97;5029260;28;20029;-83
2021/10/10 01:43:54;;;;;;;11.82;6.63;;;;;;;7.17;nan;101567.78;5029062;28;20046;-83
2021/10/10 01:46:20;;;;;;;12.20;6.78;;;;;;;7.12;nan;101558.53;5041314;28;20519;-83
2021/10/10 01:48:47;;;;;;;10.02;6.25;;;;;;;7.11;nan;101555.06;5012356;28;20088;-83
2021/10/10 01:51:14;;;;;;;10.80;6.03;;;;;;;7.09;nan;101556.13;5018153;28;20088;-82
2021/10/10 01:53:41;;;;;;;11.13;6.55;;;;;;;7.10;nan;101549.91;5027963;28;20057;-82
2021/10/10 01:56:08;;;;;;;10.55;6.13;;;;;;;7.06;nan;101548.44;5012863;28;20029;-83
2021/10/10 01:58:34;;;;;;;10.00;6.13;;;;;;;7.15;nan;101548.66;5012106;28;20080;-83
2021/10/10 02:01:01;;;;;;;8.77;6.20;;;;;;;7.32;nan;101550.13;5020392;28;20091;-84
2021/10/10 02:03:27;;;;;;;9.75;5.75;;;;;;;7.33;nan;101549.19;5016139;28;20033;-82
2021/10/10 02:05:53;;;;;;;11.32;7.13;;;;;;;7.45;nan;101545.69;5020646;28;20091;-83
2021/10/10 02:08:23;;;;;;;11.63;6.30;;;;;;;7.41;nan;101541.63;5025149;28;20196;-84
2021/10/10 02:10:51;;;;;;;10.93;6.50;;;;;;;7.27;nan;101532.97;5019537;28;20072;-83
2021/10/10 02:13:19;;;;;;;11.35;6.68;;;;;;;7.23;nan;101535.81;5029297;28;20096;-83
2021/10/10 02:15:59;;;;;;;12.82;6.20;;;;;;;7.22;nan;101531.50;5011609;28;20049;-83
2021/10/10 02:18:25;;;;;;;11.80;6.15;;;;;;;7.19;nan;101531.69;4996910;28;20131;-83
2021/10/10 02:20:53;;;;;;;14.38;6.40;;;;;;;7.20;nan;101532.56;5014804;28;20037;-82
2021/10/10 02:23:20;;;;;;;10.07;6.00;;;;;;;7.15;nan;101537.28;5019772;28;20037;-82
2021/10/10 02:25:45;;;;;;;9.05;5.60;;;;;;;7.10;nan;101539.38;5038256;28;20041;-83
2021/10/10 02:28:10;;;;;;;10.05;5.80;;;;;;;7.11;nan;101535.81;5020352;28;20537;-82
2021/10/10 02:30:36;;;;;;;11.85;6.35;;;;;;;7.21;nan;101534.25;5022347;28;20516;-82
2021/10/10 02:33:04;;;;;;;9.38;6.00;;;;;;;7.23;nan;101529.72;5034458;28;20041;-82
2021/10/10 02:35:32;;;;;;;11.02;6.53;;;;;;;7.21;nan;101528.97;5034488;28;20068;-82
2021/10/10 02:37:58;;;;;;;11.80;6.40;;;;;;;7.23;nan;101529.72;5035606;28;20042;-83
2021/10/10 02:40:24;;;;;;;11.25;6.32;;;;;;;7.15;nan;101537.28;5018081;28;20043;-83
2021/10/10 02:42:50;;;;;;;11.02;6.00;;;;;;;7.16;nan;101533.72;5016259;28;20463;-82
2021/10/10 02:45:16;;;;;;;9.80;6.20;;;;;;;7.10;nan;101537.59;5018206;28;20115;-83
2021/10/10 02:47:41;;;;;;;9.90;5.95;;;;;;;7.12;nan;101534.88;5037666;28;20041;-83
2021/10/10 02:50:07;;;;;;;14.18;6.40;;;;;;;7.21;nan;101532.44;5020673;28;20045;-83
2021/10/10 02:52:33;;;;;;;10.65;6.03;;;;;;;7.11;nan;101536.66;5036205;28;20038;-83
2021/10/10 02:54:59;;;;;;;11.18;6.50;;;;;;;7.14;nan;101530.34;5018916;28;20030;-83
2021/10/10 02:57:24;;;;;;;11.40;6.00;;;;;;;7.15;nan;101530.25;5018356;28;20391;-83
2021/10/10 02:59:49;;;;;;;13.23;6.25;;;;;;;7.17;nan;101528.34;5037130;28;20149;-83
2021/10/10 03:02:15;;;;;;;11.35;6.00;;;;;;;7.16;nan;101533.72;5035795;28;20029;-83
2021/10/10 03:04:40;;;;;;;10.43;6.35;;;;;;;7.14;nan;101530.34;5018653;28;20029;-83
2021/10/10 03:07:06;;;;;;;12.50;6.30;;;;;;;7.09;nan;101533.28;5018121;28;20029;-82
2021/10/10 03:09:31;;;;;;;9.45;6.00;;;;;;;7.11;nan;101533.19;5011230;28;20026;-82
2021/10/10 03:11:57;;;;;;;10.80;6.35;;;;;;;7.06;nan;101527.41;5014358;28;20289;-83
2021/10/10 03:14:22;;;;;;;14.38;6.72;;;;;;;7.04;nan;101521.41;5019991;28;20045;-83
2021/10/10 03:16:50;;;;;;;10.88;6.40;;;;;;;6.98;nan;101536.66;5031257;28;20038;-84
2021/10/10 03:19:16;;;;;;;10.65;6.28;;;;;;;7.06;nan;101535.31;5020388;28;20164;-84
2021/10/10 03:21:43;;;;;;;11.48;6.32;;;;;;;6.98;nan;101526.16;5022985;28;20041;-85
2021/10/10 03:24:10;;;;;;;9.45;6.63;;;;;;;7.02;nan;101524.13;5019582;28;20051;-84
2021/10/10 03:26:36;;;;;;;12.52;6.75;;;;;;;7.04;nan;101522.25;5039836;28;20418;-84
2021/10/10 03:29:03;;;;;;;9.57;6.55;;;;;;;7.02;nan;101527.59;5021211;28;20037;-83
2021/10/10 03:31:29;;;;;;;13.77;6.97;;;;;;;6.89;nan;101525.91;5009850;28;20037;-84
2021/10/10 03:33:55;;;;;;;13.02;6.40;;;;;;;6.92;nan;101523.91;5024430;28;20045;-83
2021/10/10 03:36:20;;;;;;;11.10;6.55;;;;;;;6.86;nan;101526.94;5015921;28;20453;-81
2021/10/10 03:38:45;;;;;;;12.98;6.95;;;;;;;6.85;nan;101517.38;5020770;28;20107;-83
2021/10/10 03:41:12;;;;;;;12.55;6.40;;;;;;;6.81;nan;101514.09;5037156;28;20565;-83
2021/10/10 03:43:38;;;;;;;12.82;7.00;;;;;;;6.81;nan;101522.00;5020333;28;20123;-83
2021/10/10 03:46:03;;;;;;;19.75;6.55;;;;;;;6.75;nan;101524.22;5023638;28;20041;-83
2021/10/10 03:48:29;;;;;;;13.32;7.20;;;;;;;6.77;nan;101522.31;5044138;28;20467;-84
2021/10/10 03:50:54;;;;;;;13.23;7.18;;;;;;;6.66;nan;101522.19;5021509;28;20061;-83
2021/10/10 03:53:22;;;;;;;12.48;6.55;;;;;;;6.65;nan;101518.72;5039145;28;20052;-83
2021/10/10 03:55:51;;;;;;;12.95;7.10;;;;;;;6.75;nan;101525.06;5038977;28;20033;-83
2021/10/10 03:58:16;;;;;;;11.90;6.50;;;;;;;6.66;nan;101523.03;5020922;28;20087;-83
2021/10/10 04:00:42;;;;;;;10.30;6.80;;;;;;;6.70;nan;101524.53;5041967;28;20033;-83
2021/10/10 04:03:09;;;;;;;11.77;6.50;;;;;;;6.61;nan;101521.66;5042607;28;20160;-83
2021/10/10 04:08:00;;;;;;;11.50;6.80;;;;;;;6.65;nan;101525.75;5040131;28;20200;-83
2021/10/10 04:10:27;;;;;;;11.18;7.05;;;;;;;6.62;nan;101525.97;5040776;28;20077;-83
2021/10/10 04:12:52;;;;;;;10.63;6.65;;;;;;;6.59;nan;101524.38;5024315;28;20063;-82
2021/10/10 04:15:18;;;;;;;13.73;6.95;;;;;;;6.69;nan;101532.50;5052768;28;20124;-83
2021/10/10 04:17:45;;;;;;;11.05;6.82;;;;;;;6.62;nan;101523.34;5041494;28;20278;-85
2021/10/10 04:20:12;;;;;;;11.73;6.63;;;;;;;6.62;nan;101523.34;5024203;28;20061;-84
2021/10/10 04:22:39;;;;;;;15.13;7.72;;;;;;;6.60;nan;101526.06;5007100;28;20034;-84
2021/10/10 04:25:08;;;;;;;11.75;6.85;;;;;;;6.57;nan;101532.34;5029729;28;20068;-83
2021/10/10 04:27:35;;;;;;;14.32;6.53;;;;;;;6.56;nan;101529.84;5048796;28;20060;-83
2021/10/10 04:30:02;;;;;;;11.93;6.35;;;;;;;6.46;nan;101529.63;5026783;28;20033;-84
2021/10/10 04:32:28;;;;;;;12.00;6.43;;;;;;;6.52;nan;101530.97;5026515;28;20040;-84
2021/10/10 04:34:53;;;;;;;11.07;6.50;;;;;;;6.47;nan;101523.41;5026342;28;20037;-84
2021/10/10 04:37:19;;;;;;;9.63;6.60;;;;;;;6.49;nan;101533.81;5028152;28;20216;-83
2021/10/10 04:39:44;;;;;;;10.75;6.55;;;;;;;6.40;nan;101529.16;5027560;28;20040;-82
2021/10/10 04:42:10;;;;;;;10.90;6.40;;;;;;;6.35;nan;101537.34;5045641;28;20596;-82
2021/10/10 04:44:36;;;;;;;13.50;7.43;;;;;;;6.41;nan;101529.03;5032510;28;20033;-84
2021/10/10 04:47:06;;;;;;;11.77;7.15;;;;;;;6.47;nan;101536.53;5053851;28;20044;-84
2021/10/10 04:49:32;;;;;;;9.95;6.68;;;;;;;6.44;nan;101528.88;5034824;28;20176;-85
2021/10/10 04:51:58;;;;;;;14.20;7.72;;;;;;;6.47;nan;101531.28;5038521;28;20038;-84
2021/10/10 04:54:24;;;;;;;12.45;6.45;;;;;;;6.47;nan;101543.59;5036679;28;20060;-83
2021/10/10 04:56:49;;;;;;;11.20;6.90;;;;;;;6.51;nan;101530.16;5032801;28;20029;-83
2021/10/10 04:59:15;;;;;;;13.48;7.28;;;;;;;6.37;nan;101531.03;5028414;28;20037;-83
2021/10/10 05:01:40;;;;;;;12.15;7.03;;;;;;;6.35;nan;101530.28;5027949;28;20375;-82
2021/10/10 05:04:06;;;;;;;15.68;7.38;;;;;;;6.36;nan;101539.00;5026939;28;20045;-81
2021/10/10 05:06:31;;;;;;;11.73;6.93;;;;;;;6.30;nan;101527.13;5028279;28;20033;-83
2021/10/10 05:08:56;;;;;;;10.73;6.47;;;;;;;6.28;nan;101533.44;5046565;28;20033;-83
2021/10/10 05:11:22;;;;;;;13.38;7.05;;;;;;;6.34;nan;101530.38;5045999;28;20037;-83
2021/10/10 05:13:51;;;;;;;11.88;7.30;;;;;;;6.31;nan;101534.06;5030776;28;20041;-82
2021/10/10 05:16:16;;;;;;;11.13;6.93;;;;;;;6.31;nan;101541.09;5026703;28;20033;-83
2021/10/10 05:18:43;;;;;;;13.40;6.90;;;;;;;6.26;nan;101533.50;5023978;28;20553;-83
2021/10/10 05:21:19;;;;;;;12.25;6.35;;;;;;;6.23;nan;101535.50;5009776;28;20038;-84
2021/10/10 05:23:47;;;;;;;12.27;6.90;;;;;;;6.20;nan;101539.19;5010435;28;20044;-84
2021/10/10 05:26:14;;;;;;;11.32;6.63;;;;;;;6.14;nan;101534.31;5045838;28;20033;-83
2021/10/10 05:28:41;;;;;;;13.68;7.30;;;;;;;6.27;nan;101540.47;4989464;28;20121;-83
2021/10/10 05:31:08;;;;;;;10.40;6.88;;;;;;;6.19;nan;101536.63;5036745;28;20021;-83
2021/10/10 05:33:40;;;;;;;10.60;6.70;;;;;;;6.19;nan;101532.22;5042520;28;20048;-83
2021/10/10 05:36:06;;;;;;;9.63;6.43;;;;;;;6.18;nan;101538.44;5015699;28;20053;-84
2021/10/10 05:38:32;;;;;;;13.82;7.20;;;;;;;6.17;nan;101534.09;5023523;28;20048;-85
2021/10/10 05:40:57;;;;;;;9.95;6.47;;;;;;;6.08;nan;101535.56;5043055;28;20052;-85
2021/10/10 05:43:23;;;;;;;12.63;6.82;;;;;;;6.14;nan;101540.41;5043713;28;20054;-84
2021/10/10 05:45:49;;;;;;;11.02;6.93;;;;;;;6.07;nan;101549.59;5042688;28;20029;-83
2021/10/10 05:48:14;;;;;;;12.35;7.10;;;;;;;6.02;nan;101541.19;5043755;28;20042;-84
2021/10/10 05:50:40;;;;;;;10.73;6.97;;;;;;;6.04;nan;101539.31;5025159;28;20034;-84
2021/10/10 05:53:08;;;;;;;11.50;6.95;;;;;;;6.08;nan;101550.47;5024492;28;20499;-84
2021/10/10 05:55:38;;;;;;;13.18;6.88;;;;;;;6.07;nan;101551.41;5043128;28;20029;-83
2021/10/10 05:58:04;;;;;;;11.23;6.72;;;;;;;6.01;nan;101546.56;5043406;28;20037;-83
2021/10/10 06:00:30;;;;;;;13.15;6.72;;;;;;;5.95;nan;101550.38;5024233;28;20033;-84
2021/10/10 06:02:56;;;;;;;10.38;6.43;;;;;;;5.86;nan;101557.00;5025107;28;20075;-84
2021/10/10 06:05:22;;;;;;;11.20;6.57;;;;;;;5.74;nan;101549.91;5025791;28;20087;-84
2021/10/10 06:07:47;;;;;;;12.57;6.80;;;;;;;5.60;nan;101544.66;5042203;28;20049;-82
2021/10/10 06:10:13;;;;;;;11.68;6.60;;;;;;;5.50;nan;101552.25;5018133;28;20451;-82
2021/10/10 06:12:39;;;;;;;11.88;6.72;;;;;;;5.42;nan;101541.41;5040580;28;20045;-84
2021/10/10 06:15:07;;;;;;;10.05;5.88;;;;;;;5.38;nan;101550.41;5023118;28;20041;-84
2021/10/10 06:17:34;;;;;;;13.20;6.85;;;;;;;5.33;nan;101546.25;5023767;28;20030;-84
2021/10/10 06:20:01;;;;;;;10.27;6.57;;;;;;;5.47;nan;101555.09;5040691;28;20032;-82
2021/10/10 06:22:26;;;;;;;9.75;6.15;;;;;;;5.53;nan;101546.84;5020327;28;20041;-83
2021/10/10 06:24:52;;;;;;;10.32;6.53;;;;;;;5.57;nan;101550.13;5015507;28;20037;-82
2021/10/10 06:27:17;;;;;;;9.57;6.20;;;;;;;5.62;nan;101553.28;5016166;28;20030;-83
2021/10/10 06:29:49;;;;;;;11.18;6.68;;;;;;;5.57;nan;101558.00;5013299;28;20045;-82
2021/10/10 06:32:15;;;;;;;10.80;6.95;;;;;;;5.66;nan;101558.25;5016957;28;20029;-81
2021/10/10 06:34:41;;;;;;;10.50;6.22;;;;;;;5.77;nan;101557.63;5018729;28;20053;-83
2021/10/10 06:37:06;;;;;;;11.18;6.30;;;;;;;5.87;nan;101548.22;5020676;28;20030;-82
2021/10/10 06:39:34;;;;;;;8.52;6.07;;;;;;;6.05;nan;101554.09;5036862;28;20052;-81
2021/10/10 06:42:00;;;;;;;9.35;6.22;;;;;;;6.28;nan;101552.66;5022040;28;20037;-83
2021/10/10 06:44:26;;;;;;;9.40;5.63;;;;;;;6.72;nan;101551.56;5020569;28;20033;-83
2021/10/10 06:46:51;;;;;;;10.95;5.80;;;;;;;7.17;nan;101557.25;5020319;28;20046;-83
2021/10/10 06:49:17;;;;;;;10.48;6.07;;;;;;;7.77;nan;101561.03;5027698;28;20029;-83
2021/10/10 06:51:42;;;;;;;8.45;5.32;;;;;;;8.48;nan;101562.09;5032990;28;20034;-83
2021/10/10 06:54:08;;;;;;;10.05;6.50;;;;;;;9.20;nan;101560.28;5017967;28;20096;-83
2021/10/10 06:56:33;;;;;;;9.80;5.93;;;;;;;9.68;nan;101568.84;5018756;28;20037;-83
2021/10/10 06:58:59;;;;;;;8.50;5.43;;;;;;;9.85;nan;101567.53;5036679;28;20327;-83
2021/10/10 07:01:24;;;;;;;8.15;5.35;;;;;;;10.23;nan;101566.25;5037478;28;20034;-83
2021/10/10 07:03:49;;;;;;;7.88;5.43;;;;;;;10.54;nan;101567.28;5040669;28;20465;-82
2021/10/10 07:06:15;;;;;;;10.93;6.05;;;;;;;10.86;nan;101570.88;5026819;28;20117;-84
2021/10/10 07:08:40;;;;;;;9.13;5.50;;;;;;;11.04;nan;101567.53;5041452;28;20391;-83
2021/10/10 07:11:05;;;;;;;11.07;6.00;;;;;;;11.27;nan;101570.00;5018210;28;20125;-83
2021/10/10 07:13:32;;;;;;;7.55;5.60;;;;;;;11.12;nan;101572.16;5017439;28;20044;-83
2021/10/10 07:15:58;;;;;;;10.68;6.07;;;;;;;10.96;nan;101566.47;5004288;28;20057;-84
2021/10/10 07:18:31;;;;;;;8.55;4.85;;;;;;;10.58;nan;101574.00;5018463;28;20242;-83
2021/10/10 07:21:18;;;;;;;7.03;5.45;;;;;;;10.16;nan;101570.38;5034936;28;20499;-84
2021/10/10 07:26:09;;;;;;;9.13;6.30;;;;;;;9.61;nan;101569.47;5035097;28;20048;-83
2021/10/10 07:28:34;;;;;;;9.43;5.53;;;;;;;9.43;nan;101571.72;5035491;28;20129;-83
2021/10/10 07:31:01;;;;;;;12.10;6.50;;;;;;;9.09;nan;101569.03;5019298;28;20457;-82
2021/10/10 07:33:26;;;;;;;12.20;6.70;;;;;;;8.85;nan;101567.28;5046951;28;20037;-85
2021/10/10 07:35:52;;;;;;;12.20;7.13;;;;;;;8.78;nan;101578.41;5040434;28;20064;-82
2021/10/10 07:38:17;;;;;;;9.73;6.22;;;;;;;8.69;nan;101575.47;5021555;28;20037;-83
2021/10/10 07:40:42;;;;;;;8.85;6.10;;;;;;;8.71;nan;101578.84;5021503;28;20048;-82
2021/10/10 07:43:07;;;;;;;12.55;7.80;;;;;;;8.49;nan;101574.34;5021745;28;20053;-82
2021/10/10 07:45:40;;;;;;;12.38;8.10;;;;;;;8.39;nan;101582.97;5039900;28;20034;-84
2021/10/10 07:48:05;;;;;;;13.18;8.43;;;;;;;8.53;nan;101580.22;5026845;28;20053;-84
2021/10/10 07:50:31;;;;;;;12.55;7.40;;;;;;;8.58;nan;101578.09;5039126;28;20418;-83
2021/10/10 07:52:56;;;;;;;11.27;7.25;;;;;;;8.51;nan;101582.13;5040836;28;20044;-83
2021/10/10 07:55:22;;;;;;;10.02;7.18;;;;;;;8.53;nan;101577.56;5021457;28;20060;-84
2021/10/10 07:57:47;;;;;;;11.15;7.40;;;;;;;8.53;nan;101582.00;5021880;28;20038;-83
2021/10/10 08:00:13;;;;;;;10.52;7.47;;;;;;;8.36;nan;101576.13;5021220;28;20049;-83
2021/10/10 08:02:56;;;;;;;12.40;7.55;;;;;;;8.53;nan;101579.38;5034452;28;20037;-84
2021/10/10 08:05:23;;;;;;;11.07;7.75;;;;;;;8.57;nan;101584.31;5020902;28;20063;-83
2021/10/10 08:07:52;;;;;;;14.07;9.00;;;;;;;8.58;nan;101588.66;5022507;28;20029;-83
2021/10/10 08:10:18;;;;;;;13.63;8.73;;;;;;;8.80;nan;101593.16;5040164;28;20052;-83
2021/10/10 08:13:04;;;;;;;14.27;9.32;;;;;;;9.36;nan;101595.94;5044197;28;20064;-85
2021/10/10 08:15:30;;;;;;;11.98;8.20;;;;;;;10.52;nan;101597.47;5040670;28;20106;-84
2021/10/10 08:17:56;;;;;;;11.93;7.95;;;;;;;11.69;nan;101602.56;5022416;28;20038;-84
2021/10/10 08:20:22;;;;;;;11.93;8.02;;;;;;;12.83;nan;101608.44;5026574;28;20048;-84
2021/10/10 08:22:48;;;;;;;10.77;7.68;;;;;;;13.44;nan;101607.25;5044435;28;20033;-85
2021/10/10 08:25:15;;;;;;;13.10;8.07;;;;;;;14.01;nan;101599.22;5044597;28;20044;-85
2021/10/10 08:27:42;;;;;;;10.00;6.95;;;;;;;14.64;nan;101601.09;5027280;28;20042;-84
2021/10/10 08:30:11;;;;;;;9.50;6.60;;;;;;;15.52;nan;101601.09;5026675;28;20298;-84
2021/10/10 08:32:37;;;;;;;11.05;6.00;;;;;;;16.61;nan;101603.00;5029842;28;20029;-84
2021/10/10 08:35:04;;;;;;;8.98;5.95;;;;;;;17.42;nan;101598.66;5030229;28;20033;-85
2021/10/10 08:37:29;;;;;;;9.68;6.35;;;;;;;18.20;nan;101600.56;5027080;28;20451;-84
2021/10/10 08:39:55;;;;;;;8.38;5.90;;;;;;;18.59;nan;101598.81;5026777;28;20068;-83
2021/10/10 08:42:33;;;;;;;10.40;7.03;;;;;;;18.75;nan;101612.09;5043803;28;20053;-84
2021/10/10 08:45:20;;;;;;;9.27;5.97;;;;;;;19.21;nan;101611.22;5024567;28;20046;-85
2021/10/10 08:47:46;;;;;;;7.90;6.05;;;;;;;19.82;nan;101611.13;5032986;28;20031;-85
2021/10/10 08:50:18;;;;;;;9.80;6.53;;;;;;;20.06;nan;101620.72;5036465;28;20053;-85
2021/10/10 08:52:44;;;;;;;8.70;6.60;;;;;;;20.50;nan;101615.25;5027923;28;20039;-84
2021/10/10 08:55:11;;;;;;;10.27;7.05;;;;;;;20.33;nan;101625.41;5045969;28;20045;-84
2021/10/10 08:57:37;;;;;;;9.07;6.22;;;;;;;20.32;nan;101626.41;5046442;28;20045;-83
2021/10/10 09:00:07;;;;;;;9.15;8.05;;;;;;;20.81;nan;101622.19;5027345;28;20041;-83
2021/10/10 09:02:33;;;;;;;8.98;6.95;;;;;;;20.22;nan;101625.88;5029971;28;20034;-83
2021/10/10 09:05:08;;;;;;;8.23;6.15;;;;;;;20.84;nan;101621.81;5047047;28;20041;-83
2021/10/10 09:07:35;;;;;;;7.18;5.20;;;;;;;20.99;nan;101613.66;5046392;28;20064;-85
2021/10/10 09:10:25;;;;;;;8.35;6.28;;;;;;;20.88;nan;101609.66;5031999;28;20045;-86
2021/10/10 09:12:52;;;;;;;8.10;5.40;;;;;;;21.12;nan;101613.78;5037474;28;20052;-86
2021/10/10 09:15:20;;;;;;;9.18;6.38;;;;;;;21.17;nan;101618.56;5035579;28;20245;-85
2021/10/10 09:17:57;;;;;;;9.35;6.65;;;;;;;20.56;nan;101609.13;5028208;28;20065;-84
2021/10/10 09:20:30;;;;;;;9.95;6.30;;;;;;;19.71;nan;101609.72;5042654;28;20057;-84
2021/10/10 09:22:56;;;;;;;8.88;6.55;;;;;;;19.23;nan;101614.56;5025786;28;20056;-84
2021/10/10 09:25:28;;;;;;;10.95;6.90;;;;;;;18.51;nan;101606.91;5044950;28;20402;-84
2021/10/10 09:27:53;;;;;;;10.40;6.60;;;;;;;17.44;nan;101607.34;5024548;28;20037;-86
2021/10/10 09:30:24;;;;;;;12.85;8.90;;;;;;;16.45;nan;101598.47;5028443;28;20057;-83
2021/10/10 09:32:55;;;;;;;15.02;9.80;;;;;;;15.79;nan;101599.28;5029711;28;20048;-85
2021/10/10 09:35:30;;;;;;;12.88;8.15;;;;;;;14.80;nan;101595.94;5030399;28;20041;-83
2021/10/10 09:38:12;;;;;;;10.45;7.47;;;;;;;13.98;nan;101594.19;5043778;28;20037;-83
2021/10/10 09:40:52;;;;;;;12.38;8.35;;;;;;;14.03;nan;101594.59;5021899;28;20048;-84
2021/10/10 09:43:18;;;;;;;13.25;9.35;;;;;;;13.55;nan;101600.97;5022150;28;20030;-82
2021/10/10 09:45:53;;;;;;;16.92;11.55;;;;;;;13.37;nan;101593.75;5022693;28;20058;-84
2021/10/10 09:48:30;;;;;;;16.63;12.05;;;;;;;13.63;nan;101592.25;5018075;28;20240;-83
2021/10/10 09:50:55;;;;;;;18.20;11.10;;;;;;;13.33;nan;101594.19;5000900;28;20034;-84
2021/10/10 09:53:29;;;;;;;16.98;10.35;;;;;;;13.53;nan;101585.16;5026804;28;20033;-83
2021/10/10 09:55:56;;;;;;;13.73;8.70;;;;;;;13.54;nan;101588.66;5021107;28;20034;-83
2021/10/10 09:58:41;;;;;;;13.35;7.93;;;;;;;13.42;nan;101588.00;5016051;28;20110;-84
2021/10/10 10:01:14;;;;;;;12.48;6.72;;;;;;;13.50;nan;101581.97;5021986;28;20030;-85
2021/10/10 10:04:00;;;;;;;10.30;6.90;;;;;;;13.44;nan;101585.19;5016440;28;20499;-83
2021/10/10 10:06:28;;;;;;;15.93;8.80;;;;;;;13.64;nan;101592.13;5019156;28;20048;-83
2021/10/10 10:08:55;;;;;;;10.55;7.95;;;;;;;13.58;nan;101584.72;5014915;28;20278;-83
2021/10/10 10:11:21;;;;;;;12.38;8.88;;;;;;;13.38;nan;101584.78;5008186;28;20038;-83
2021/10/10 10:13:47;;;;;;;10.55;7.78;;;;;;;13.36;nan;101589.41;5015956;28;20056;-83
2021/10/10 10:16:14;;;;;;;14.40;9.10;;;;;;;13.16;nan;101585.09;5014388;28;20057;-84
2021/10/10 10:18:41;;;;;;;12.30;8.52;;;;;;;13.14;nan;101582.56;5013713;28;20034;-83
2021/10/10 10:21:08;;;;;;;12.70;8.85;;;;;;;13.46;nan;101584.06;5013079;28;20120;-84
2021/10/10 10:23:35;;;;;;;12.85;8.65;;;;;;;13.48;nan;101578.59;5016544;28;20030;-83
2021/10/10 10:26:01;;;;;;;13.85;9.35;;;;;;;13.57;nan;101583.88;5016313;28;20033;-84
2021/10/10 10:28:27;;;;;;;14.43;9.80;;;;;;;13.57;nan;101585.72;5012507;28;20171;-84
2021/10/10 10:30:53;;;;;;;13.00;8.85;;;;;;;13.46;nan;101578.75;5015627;28;20033;-84
2021/10/10 10:33:19;;;;;;;13.85;8.90;;;;;;;13.38;nan;101586.59;5021176;28;20396;-84
2021/10/10 10:35:46;;;;;;;12.75;9.15;;;;;;;13.23;nan;101580.88;5015305;28;20034;-84
2021/10/10 10:38:11;;;;;;;14.25;9.65;;;;;;;13.22;nan;101592.47;5017963;28;20030;-84
2021/10/10 10:40:40;;;;;;;11.70;8.25;;;;;;;13.32;nan;101603.09;5035510;28;20513;-84
2021/10/10 10:43:07;;;;;;;13.88;9.32;;;;;;;13.37;nan;101603.50;5019605;28;20040;-83
2021/10/10 10:45:41;;;;;;;12.45;9.15;;;;;;;13.53;nan;101589.63;5035803;28;20030;-84
2021/10/10 10:48:29;;;;;;;13.23;9.15;;;;;;;13.46;nan;101600.00;5026562;28;20041;-84
2021/10/10 10:51:33;;;;;;;12.25;8.77;;;;;;;13.36;nan;101596.53;5022801;28;20050;-83
2021/10/10 10:54:36;;;;;;;13.02;9.07;;;;;;;13.34;nan;101591.34;4976642;28;20041;-83
2021/10/10 10:57:32;;;;;;;12.82;8.48;;;;;;;13.37;nan;101592.88;5015934;28;20061;-83
2021/10/10 11:00:04;;;;;;;15.43;9.00;;;;;;;13.29;nan;101590.13;5016842;28;20403;-82
2021/10/10 11:02:53;;;;;;;15.90;8.52;;;;;;;13.43;nan;101583.53;5013913;28;20060;-83
2021/10/10 11:05:40;;;;;;;12.30;8.85;;;;;;;13.48;nan;101583.91;5015484;28;20064;-83
2021/10/10 11:08:25;;;;;;;14.82;9.38;;;;;;;13.51;nan;101578.31;5030570;28;20034;-84
2021/10/10 11:11:00;;;;;;;12.65;8.48;;;;;;;13.74;nan;101566.31;5014839;28;20048;-84
2021/10/10 11:13:35;;;;;;;13.95;9.02;;;;;;;13.78;nan;101567.72;5030946;28;20034;-83
2021/10/10 11:16:11;;;;;;;14.95;9.13;;;;;;;13.73;nan;101555.81;5010676;28;20031;-84
2021/10/10 11:18:44;;;;;;;11.45;7.85;;;;;;;13.74;nan;101555.69;5013532;28;20475;-83
2021/10/10 11:21:12;;;;;;;15.90;10.30;;;;;;;13.52;nan;101562.22;5011364;28;20042;-84
2021/10/10 11:23:37;;;;;;;13.27;9.43;;;;;;;13.68;nan;101564.28;5012747;28;20414;-84
2021/10/10 11:26:08;;;;;;;17.08;9.98;;;;;;;13.78;nan;101553.59;5014712;28;20567;-84
2021/10/10 11:28:44;;;;;;;13.98;9.68;;;;;;;13.89;nan;101558.69;5014375;28;20072;-84
2021/10/10 11:31:09;;;;;;;16.50;9.63;;;;;;;13.73;nan;101545.19;5015940;28;20073;-84
2021/10/10 11:33:43;;;;;;;16.00;10.37;;;;;;;13.84;nan;101542.34;5016553;28;20546;-84
2021/10/10 11:36:09;;;;;;;13.82;9.00;;;;;;;13.92;nan;101547.78;5014700;28;20312;-83
2021/10/10 11:38:56;;;;;;;13.88;8.68;;;;;;;14.00;nan;101537.22;5015355;28;20041;-84
2021/10/10 11:41:23;;;;;;;12.90;9.65;;;;;;;14.01;nan;101533.59;5016389;28;20239;-84
2021/10/10 11:44:07;;;;;;;13.77;10.05;;;;;;;14.06;nan;101526.97;5014133;28;20046;-84
2021/10/10 11:46:53;;;;;;;12.63;8.90;;;;;;;14.12;nan;101529.03;5019016;28;20135;-84
2021/10/10 11:49:43;;;;;;;12.93;8.60;;;;;;;14.03;nan;101528.09;5018382;28;20038;-84
2021/10/10 11:52:21;;;;;;;14.35;9.07;;;;;;;14.07;nan;101524.16;5034784;28;20033;-83
2021/10/10 11:54:55;;;;;;;12.98;9.07;;;;;;;14.22;nan;101517.31;5023818;28;20034;-82